createdAt,value
2022-10-17T00:00:34.718Z,19.32
2022-10-17T00:03:01.798Z,19.32
2022-10-17T00:05:28.824Z,18.84
2022-10-17T00:07:55.875Z,19.04
2022-10-17T00:10:22.594Z,19.00
2022-10-17T00:12:51.540Z,19.15
2022-10-17T00:15:20.171Z,19.11
2022-10-17T00:17:47.134Z,18.27
2022-10-17T00:20:13.793Z,19.06
2022-10-17T00:22:40.887Z,18.94
2022-10-17T00:25:08.229Z,18.08
2022-10-17T00:27:38.255Z,19.27
2022-10-17T00:30:06.795Z,19.25
2022-10-17T00:32:33.507Z,18.65
2022-10-17T00:35:00.267Z,19.24
2022-10-17T00:37:27.013Z,19.26
2022-10-17T00:39:54.380Z,18.52
2022-10-17T00:42:21.081Z,19.61
2022-10-17T00:44:48.019Z,19.11
2022-10-17T00:47:19.887Z,19.31
2022-10-17T00:49:47.898Z,19.56
2022-10-17T00:52:19.596Z,19.63
2022-10-17T00:54:49.594Z,19.74
2022-10-17T00:57:17.570Z,19.46
2022-10-17T00:59:50.482Z,19.90
2022-10-17T01:02:19.508Z,19.81
2022-10-17T01:04:50.037Z,19.82
2022-10-17T01:07:16.939Z,19.82
2022-10-17T01:09:45.655Z,19.66
2022-10-17T01:12:27.455Z,19.10
2022-10-17T01:15:31.087Z,19.64
2022-10-17T01:18:14.811Z,19.39
2022-10-17T01:20:47.331Z,18.70
2022-10-17T01:23:43.290Z,19.26
2022-10-17T01:26:30.923Z,19.40
2022-10-17T01:29:15.210Z,19.81
2022-10-17T01:31:55.769Z,19.71
2022-10-17T01:34:32.949Z,19.83
2022-10-17T01:37:16.154Z,19.76
2022-10-17T01:39:48.171Z,19.28
2022-10-17T01:42:33.510Z,20.15
2022-10-17T01:45:25.591Z,20.01
2022-10-17T01:47:54.401Z,19.76
2022-10-17T01:50:28.002Z,20.40
2022-10-17T01:53:02.083Z,20.19
2022-10-17T01:55:42.408Z,20.20
2022-10-17T01:58:17.499Z,20.24
2022-10-17T02:00:45.478Z,20.23
2022-10-17T02:03:17.687Z,20.16
2022-10-17T02:05:44.232Z,20.15
2022-10-17T02:08:11.530Z,19.77
2022-10-17T02:11:03.001Z,20.20
2022-10-17T02:14:07.163Z,20.34
2022-10-17T02:17:03.589Z,20.22
2022-10-17T02:19:39.083Z,19.52
2022-10-17T02:22:16.878Z,19.71
2022-10-17T02:25:01.863Z,20.38
2022-10-17T02:27:34.608Z,19.16
2022-10-17T02:30:24.019Z,20.22
2022-10-17T02:33:00.004Z,20.19
2022-10-17T02:35:31.522Z,19.91
2022-10-17T02:37:59.916Z,20.05
2022-10-17T02:40:29.719Z,20.29
2022-10-17T02:42:58.550Z,20.37
2022-10-17T02:45:28.064Z,20.21
2022-10-17T02:48:03.554Z,20.36
2022-10-17T02:51:00.824Z,20.59
2022-10-17T02:53:34.914Z,20.00
2022-10-17T02:56:08.530Z,20.51
2022-10-17T02:58:37.584Z,20.51
2022-10-17T03:01:04.921Z,20.59
2022-10-17T03:03:32.733Z,20.55
2022-10-17T03:05:59.450Z,20.16
2022-10-17T03:08:26.801Z,20.58
2022-10-17T03:10:53.591Z,20.26
2022-10-17T03:13:20.919Z,20.51
2022-10-17T03:15:48.024Z,20.66
2022-10-17T03:18:14.761Z,20.61
2022-10-17T03:20:41.178Z,20.08
2022-10-17T03:23:07.886Z,20.15
2022-10-17T03:25:35.866Z,20.44
2022-10-17T03:28:02.425Z,20.71
2022-10-17T03:30:29.466Z,20.59
2022-10-17T03:32:58.221Z,20.61
2022-10-17T03:35:25.661Z,20.84
2022-10-17T03:37:52.595Z,20.85
2022-10-17T03:40:19.074Z,21.07
2022-10-17T03:42:45.815Z,20.86
2022-10-17T03:45:12.594Z,20.99
2022-10-17T03:47:39.415Z,20.87
2022-10-17T03:50:06.407Z,20.80
2022-10-17T03:52:33.274Z,20.49
2022-10-17T03:55:03.528Z,20.94
2022-10-17T03:57:30.407Z,20.85
2022-10-17T03:59:59.349Z,20.88
2022-10-17T04:02:26.052Z,20.90
2022-10-17T04:04:54.057Z,20.99
2022-10-17T04:07:20.635Z,20.75
2022-10-17T04:09:48.440Z,20.67
2022-10-17T04:12:14.949Z,20.55
2022-10-17T04:14:41.413Z,21.03
2022-10-17T04:17:08.099Z,20.61
2022-10-17T04:19:35.211Z,20.91
2022-10-17T04:22:03.439Z,21.07
2022-10-17T04:24:30.522Z,21.08
2022-10-17T04:26:57.771Z,20.30
2022-10-17T04:29:25.909Z,21.31
2022-10-17T04:31:52.732Z,21.19
2022-10-17T04:34:19.704Z,21.21
2022-10-17T04:36:47.236Z,20.83
2022-10-17T04:41:42.362Z,21.14
2022-10-17T04:44:10.678Z,20.83
2022-10-17T04:46:37.347Z,20.76
2022-10-17T04:49:03.959Z,20.92
2022-10-17T04:51:30.908Z,21.19
2022-10-17T04:53:58.476Z,21.00
2022-10-17T04:56:25.712Z,20.77
2022-10-17T04:58:52.643Z,20.81
2022-10-17T05:01:22.580Z,20.69
2022-10-17T05:04:02.503Z,20.97
2022-10-17T05:06:29.267Z,20.55
2022-10-17T05:08:56.089Z,20.39
2022-10-17T05:11:25.748Z,20.60
2022-10-17T05:13:54.721Z,20.55
2022-10-17T05:16:22.103Z,20.31
2022-10-17T05:18:53.831Z,20.46
2022-10-17T05:21:21.732Z,20.75
2022-10-17T05:23:48.393Z,20.01
2022-10-17T05:26:15.442Z,20.20
2022-10-17T05:28:42.403Z,20.52
2022-10-17T05:31:11.034Z,20.32
2022-10-17T05:33:39.055Z,20.67
2022-10-17T05:36:06.448Z,20.71
2022-10-17T05:38:33.228Z,20.74
2022-10-17T05:41:00.931Z,20.68
2022-10-17T05:43:28.224Z,20.30
2022-10-17T05:45:55.296Z,20.65
2022-10-17T05:48:23.035Z,20.31
2022-10-17T05:50:50.240Z,20.34
2022-10-17T05:53:17.475Z,20.27
2022-10-17T05:55:45.366Z,20.58
2022-10-17T05:58:21.731Z,20.64
2022-10-17T06:00:49.156Z,20.59
2022-10-17T06:03:15.719Z,20.54
2022-10-17T06:05:42.419Z,20.47
2022-10-17T06:08:09.040Z,20.01
2022-10-17T06:10:35.854Z,20.17
2022-10-17T06:13:02.569Z,20.59
2022-10-17T06:15:29.726Z,20.70
2022-10-17T06:17:56.842Z,20.44
2022-10-17T06:20:23.596Z,20.57
2022-10-17T06:22:51.621Z,20.36
2022-10-17T06:25:18.165Z,20.70
2022-10-17T06:27:44.933Z,20.78
2022-10-17T06:30:12.181Z,20.17
2022-10-17T06:32:38.935Z,20.76
2022-10-17T06:35:06.046Z,20.47
2022-10-17T06:37:36.450Z,20.64
2022-10-17T06:40:04.302Z,20.75
2022-10-17T06:42:31.008Z,20.67
2022-10-17T06:45:00.440Z,20.94
2022-10-17T06:47:27.367Z,21.26
2022-10-17T06:49:54.116Z,21.44
2022-10-17T06:52:21.642Z,20.81
2022-10-17T06:54:48.584Z,21.25
2022-10-17T06:57:16.102Z,21.27
2022-10-17T06:59:43.539Z,21.39
2022-10-17T07:02:10.962Z,21.50
2022-10-17T07:04:38.224Z,21.50
2022-10-17T07:07:06.015Z,21.65
2022-10-17T07:09:33.078Z,21.96
2022-10-17T07:12:00.574Z,21.55
2022-10-17T07:14:31.992Z,22.06
2022-10-17T07:16:59.864Z,21.46
2022-10-17T07:19:29.636Z,21.74
2022-10-17T07:21:56.807Z,22.56
2022-10-17T07:24:24.579Z,22.24
2022-10-17T07:26:51.198Z,22.45
2022-10-17T07:29:17.611Z,22.68
2022-10-17T07:31:45.608Z,22.43
2022-10-17T07:34:12.098Z,22.37
2022-10-17T07:36:38.795Z,22.80
2022-10-17T07:39:05.872Z,22.58
2022-10-17T07:41:32.447Z,22.99
2022-10-17T07:43:59.158Z,22.20
2022-10-17T07:46:25.730Z,23.11
2022-10-17T07:48:52.292Z,22.68
2022-10-17T07:51:20.282Z,22.77
2022-10-17T07:53:48.818Z,22.94
2022-10-17T07:56:17.638Z,22.45
2022-10-17T07:58:44.145Z,22.94
2022-10-17T08:01:15.517Z,23.87
2022-10-17T08:03:44.637Z,23.68
2022-10-17T08:06:12.176Z,23.36
2022-10-17T08:08:39.183Z,22.88
2022-10-17T08:11:08.138Z,22.61
2022-10-17T08:13:35.174Z,23.17
2022-10-17T08:16:03.644Z,23.37
2022-10-17T08:18:30.532Z,23.96
2022-10-17T08:21:00.779Z,23.43
2022-10-17T08:23:30.009Z,22.62
2022-10-17T08:25:59.832Z,24.33
2022-10-17T08:28:26.565Z,23.22
2022-10-17T08:30:52.970Z,24.01
2022-10-17T08:33:19.389Z,24.12
2022-10-17T08:35:46.266Z,23.91
2022-10-17T08:38:13.513Z,24.42
2022-10-17T08:40:42.826Z,24.37
2022-10-17T08:43:35.377Z,23.73
2022-10-17T08:46:05.319Z,24.68
2022-10-17T08:48:46.723Z,24.24
2022-10-17T08:51:24.726Z,24.74
2022-10-17T08:54:22.289Z,25.09
2022-10-17T08:56:51.247Z,25.13
2022-10-17T08:59:28.469Z,25.95
2022-10-17T09:02:48.094Z,25.38
2022-10-17T09:05:33.394Z,25.71
2022-10-17T09:08:17.545Z,24.91
2022-10-17T09:10:57.021Z,25.72
2022-10-17T09:14:02.268Z,25.52
2022-10-17T09:16:43.908Z,26.05
2022-10-17T09:19:31.572Z,25.48
2022-10-17T09:22:05.853Z,25.09
2022-10-17T09:24:48.338Z,25.46
2022-10-17T09:27:24.095Z,24.61
2022-10-17T09:29:57.616Z,25.51
2022-10-17T09:32:25.571Z,25.88
2022-10-17T09:34:53.946Z,25.72
2022-10-17T09:37:25.565Z,25.65
2022-10-17T09:39:52.481Z,25.35
2022-10-17T09:42:21.761Z,26.17
2022-10-17T09:45:19.613Z,27.26
2022-10-17T09:48:02.062Z,25.95
2022-10-17T09:50:34.352Z,26.22
2022-10-17T09:53:10.061Z,25.80
2022-10-17T09:55:43.276Z,26.99
2022-10-17T09:58:10.883Z,27.05
2022-10-17T10:00:44.208Z,26.93
2022-10-17T10:03:25.251Z,26.86
2022-10-17T10:06:01.327Z,26.44
2022-10-17T10:08:36.603Z,27.26
2022-10-17T10:11:06.585Z,26.72
2022-10-17T10:13:35.368Z,27.01
2022-10-17T10:16:14.061Z,27.48
2022-10-17T10:18:40.529Z,26.67
2022-10-17T10:21:16.547Z,26.28
2022-10-17T10:23:45.477Z,27.17
2022-10-17T10:26:22.461Z,26.01
2022-10-17T10:29:01.843Z,27.15
2022-10-17T10:31:43.007Z,27.16
2022-10-17T10:34:22.323Z,25.74
2022-10-17T10:37:01.107Z,25.54
2022-10-17T10:39:47.834Z,26.94
2022-10-17T10:42:25.512Z,26.33
2022-10-17T10:44:54.152Z,27.70
2022-10-17T10:47:22.626Z,27.35
2022-10-17T10:49:52.755Z,28.28
2022-10-17T10:52:41.754Z,28.38
2022-10-17T10:55:32.327Z,26.51
2022-10-17T10:58:03.941Z,27.36
2022-10-17T11:00:34.869Z,27.53
2022-10-17T11:03:16.186Z,28.02
2022-10-17T11:05:58.017Z,27.29
2022-10-17T11:09:11.108Z,26.89
2022-10-17T11:11:45.607Z,28.04
2022-10-17T11:14:39.013Z,28.15
2022-10-17T11:17:24.109Z,27.56
2022-10-17T11:20:10.538Z,27.60
2022-10-17T11:23:13.974Z,27.59
2022-10-17T11:25:41.379Z,27.68
2022-10-17T11:28:18.034Z,27.26
2022-10-17T11:31:04.539Z,27.53
2022-10-17T11:33:50.785Z,28.30
2022-10-17T11:36:22.735Z,27.92
2022-10-17T11:39:00.113Z,28.33
2022-10-17T11:41:43.717Z,27.83
2022-10-17T11:44:35.132Z,28.27
2022-10-17T11:47:29.792Z,28.42
2022-10-17T11:53:03.840Z,28.01
2022-10-17T11:55:34.294Z,28.33
2022-10-17T11:58:39.072Z,28.44
2022-10-17T12:02:03.116Z,28.51
2022-10-17T12:04:49.669Z,28.27
2022-10-17T12:07:33.656Z,28.64
2022-10-17T12:10:20.776Z,29.00
2022-10-17T12:12:49.521Z,28.34
2022-10-17T12:15:25.349Z,28.59
2022-10-17T12:18:03.389Z,28.16
2022-10-17T12:20:31.253Z,28.42
2022-10-17T12:23:13.341Z,27.55
2022-10-17T12:25:58.256Z,28.15
2022-10-17T12:28:45.744Z,28.15
2022-10-17T12:31:23.164Z,27.75
2022-10-17T12:33:58.271Z,28.20
2022-10-17T12:36:28.133Z,27.48
2022-10-17T12:39:11.750Z,26.29
2022-10-17T12:41:38.692Z,25.92
2022-10-17T12:44:14.741Z,26.83
2022-10-17T12:47:10.933Z,27.36
2022-10-17T12:49:55.770Z,27.57
2022-10-17T12:52:32.762Z,27.57
2022-10-17T12:55:13.130Z,26.46
2022-10-17T12:57:49.828Z,26.49
2022-10-17T13:00:35.947Z,26.74
2022-10-17T13:03:31.248Z,27.66
2022-10-17T13:06:01.364Z,27.32
2022-10-17T13:08:33.904Z,27.49
2022-10-17T13:11:01.560Z,27.26
2022-10-17T13:13:41.909Z,27.53
2022-10-17T13:16:08.948Z,26.64
2022-10-17T13:18:36.014Z,27.07
2022-10-17T13:21:15.864Z,27.30
2022-10-17T13:23:42.508Z,26.95
2022-10-17T13:26:23.909Z,27.18
2022-10-17T13:29:07.322Z,27.14
2022-10-17T13:31:37.228Z,27.40
2022-10-17T13:34:07.124Z,27.09
2022-10-17T13:36:35.786Z,26.72
2022-10-17T13:39:13.693Z,25.79
2022-10-17T13:41:42.021Z,26.83
2022-10-17T13:44:19.481Z,27.03
2022-10-17T13:46:46.807Z,26.30
2022-10-17T13:49:41.623Z,25.71
2022-10-17T13:52:26.367Z,26.63
2022-10-17T13:54:56.424Z,26.80
2022-10-17T13:57:29.695Z,26.78
2022-10-17T14:00:12.409Z,25.88
2022-10-17T14:02:41.474Z,25.44
2022-10-17T14:05:17.117Z,25.84
2022-10-17T14:10:43.488Z,25.53
2022-10-17T14:13:26.258Z,26.25
2022-10-17T14:15:56.018Z,25.75
2022-10-17T14:18:33.428Z,26.28
2022-10-17T14:23:51.766Z,25.50
2022-10-17T14:26:23.732Z,25.94
2022-10-17T14:29:25.614Z,25.86
2022-10-17T14:32:02.872Z,25.12
2022-10-17T14:34:33.802Z,26.48
2022-10-17T14:37:02.306Z,26.37
2022-10-17T14:39:29.492Z,26.50
2022-10-17T14:41:57.910Z,25.76
2022-10-17T14:44:29.267Z,26.23
2022-10-17T14:47:00.225Z,26.79
2022-10-17T14:49:34.080Z,26.67
2022-10-17T14:52:33.881Z,26.55
2022-10-17T14:55:20.657Z,26.78
2022-10-17T14:57:47.183Z,26.75
2022-10-17T15:00:16.662Z,26.78
2022-10-17T15:02:43.307Z,26.59
2022-10-17T15:05:18.259Z,26.15
2022-10-17T15:07:44.960Z,26.66
2022-10-17T15:10:44.998Z,26.75
2022-10-17T15:13:27.797Z,26.50
2022-10-17T15:15:55.142Z,25.92
2022-10-17T15:18:22.548Z,26.43
2022-10-17T15:20:55.352Z,26.18
2022-10-17T15:23:32.474Z,26.72
2022-10-17T15:25:58.925Z,26.54
2022-10-17T15:28:25.478Z,26.62
2022-10-17T15:30:52.137Z,26.63
2022-10-17T15:33:18.736Z,26.39
2022-10-17T15:36:00.200Z,26.45
2022-10-17T15:38:26.695Z,26.19
2022-10-17T15:40:53.241Z,25.86
2022-10-17T15:43:20.247Z,26.63
2022-10-17T15:45:47.208Z,25.13
2022-10-17T15:48:23.410Z,25.41
2022-10-17T15:50:49.871Z,25.89
2022-10-17T15:53:16.469Z,26.21
2022-10-17T15:55:42.867Z,26.35
2022-10-17T15:58:15.191Z,26.69
2022-10-17T16:00:42.087Z,25.40
2022-10-17T16:03:10.979Z,26.41
2022-10-17T16:05:37.763Z,26.43
2022-10-17T16:08:04.371Z,26.43
2022-10-17T16:10:30.827Z,26.14
2022-10-17T16:12:58.034Z,26.49
2022-10-17T16:15:26.645Z,25.88
2022-10-17T16:17:55.867Z,26.10
2022-10-17T16:20:24.163Z,26.03
2022-10-17T16:22:51.222Z,26.20
2022-10-17T16:25:21.393Z,25.32
2022-10-17T16:27:50.350Z,25.77
2022-10-17T16:30:17.555Z,25.42
2022-10-17T16:32:44.649Z,25.81
2022-10-17T16:35:18.883Z,25.80
2022-10-17T16:37:45.649Z,25.64
2022-10-17T16:40:12.142Z,25.75
2022-10-17T16:42:38.564Z,25.31
2022-10-17T16:45:05.562Z,25.79
2022-10-17T16:47:32.247Z,25.60
2022-10-17T16:49:58.728Z,26.22
2022-10-17T16:52:25.507Z,26.15
2022-10-17T16:54:51.987Z,26.26
2022-10-17T16:57:19.277Z,26.02
2022-10-17T16:59:45.750Z,25.69
2022-10-17T17:02:17.570Z,26.09
2022-10-17T17:04:47.177Z,25.48
2022-10-17T17:07:14.441Z,25.66
2022-10-17T17:09:47.888Z,25.98
2022-10-17T17:12:16.141Z,25.68
2022-10-17T17:14:43.229Z,25.82
2022-10-17T17:17:19.386Z,25.49
2022-10-17T17:19:56.735Z,25.73
2022-10-17T17:22:23.127Z,24.36
2022-10-17T17:27:15.907Z,25.81
2022-10-17T17:29:42.501Z,25.82
2022-10-17T17:32:09.011Z,25.67
2022-10-17T17:34:36.966Z,25.72
2022-10-17T17:37:03.867Z,25.83
2022-10-17T17:39:30.440Z,25.83
2022-10-17T17:41:56.821Z,25.68
2022-10-17T17:44:23.204Z,25.54
2022-10-17T17:46:49.683Z,25.48
2022-10-17T17:49:16.135Z,25.88
2022-10-17T17:51:46.150Z,25.29
2022-10-17T17:54:13.069Z,26.07
2022-10-17T17:56:39.646Z,25.55
2022-10-17T17:59:06.139Z,25.77
2022-10-17T18:01:39.094Z,25.70
2022-10-17T18:04:08.877Z,24.99
2022-10-17T18:06:36.479Z,24.72
2022-10-17T18:09:04.072Z,24.37
2022-10-17T18:11:30.881Z,25.55
2022-10-17T18:14:03.895Z,24.96
2022-10-17T18:16:32.480Z,25.40
2022-10-17T18:19:04.060Z,25.46
2022-10-17T18:21:33.771Z,24.69
2022-10-17T18:24:00.218Z,24.69
2022-10-17T18:26:27.083Z,25.48
2022-10-17T18:28:53.821Z,25.74
2022-10-17T18:31:25.007Z,24.83
2022-10-17T18:33:52.957Z,25.35
2022-10-17T18:36:19.751Z,24.42
2022-10-17T18:38:46.204Z,25.07
2022-10-17T18:41:18.704Z,25.05
2022-10-17T18:43:46.772Z,24.58
2022-10-17T18:46:19.572Z,24.40
2022-10-17T18:48:47.326Z,24.90
2022-10-17T18:51:15.883Z,25.44
2022-10-17T18:53:44.753Z,23.80
2022-10-17T18:56:12.655Z,23.57
2022-10-17T18:58:40.286Z,23.57
2022-10-17T19:01:10.175Z,24.68
2022-10-17T19:03:37.226Z,23.92
2022-10-17T19:06:07.356Z,24.51
2022-10-17T19:08:34.769Z,24.41
2022-10-17T19:11:11.485Z,24.74
2022-10-17T19:13:38.211Z,24.86
2022-10-17T19:16:13.283Z,24.81
2022-10-17T19:18:40.214Z,24.48
2022-10-17T19:21:11.567Z,24.85
2022-10-17T19:23:39.066Z,24.92
2022-10-17T19:26:10.373Z,25.22
2022-10-17T19:28:39.907Z,25.31
2022-10-17T19:31:14.098Z,25.11
2022-10-17T19:33:43.488Z,24.82
2022-10-17T19:36:11.303Z,24.81
2022-10-17T19:38:37.855Z,25.04
2022-10-17T19:41:09.968Z,24.72
2022-10-17T19:43:37.582Z,24.99
2022-10-17T19:46:07.731Z,23.45
2022-10-17T19:48:36.783Z,25.12
2022-10-17T19:51:05.114Z,25.05
2022-10-17T19:53:33.590Z,25.07
2022-10-17T19:56:00.955Z,24.99
2022-10-17T19:58:27.981Z,24.93
2022-10-17T20:00:57.253Z,24.93
2022-10-17T20:03:29.573Z,24.86
2022-10-17T20:05:58.366Z,24.70
2022-10-17T20:10:52.336Z,24.74
2022-10-17T20:13:18.907Z,24.32
2022-10-17T20:15:56.060Z,24.70
2022-10-17T20:18:24.420Z,24.42
2022-10-17T20:20:50.919Z,24.83
2022-10-17T20:23:17.855Z,24.54
2022-10-17T20:25:45.560Z,24.03
2022-10-17T20:28:12.459Z,24.73
2022-10-17T20:30:46.635Z,23.67
2022-10-17T20:33:15.494Z,24.11
2022-10-17T20:35:43.302Z,24.40
2022-10-17T20:38:12.334Z,23.57
2022-10-17T20:40:39.432Z,24.34
2022-10-17T20:43:08.253Z,22.66
2022-10-17T20:45:50.611Z,23.73
2022-10-17T20:48:18.470Z,24.07
2022-10-17T20:50:45.331Z,22.97
2022-10-17T20:56:09.167Z,23.55
2022-10-17T20:58:36.038Z,23.62
2022-10-17T21:01:10.612Z,23.58
2022-10-17T21:03:42.383Z,23.65
2022-10-17T21:06:16.318Z,23.48
2022-10-17T21:08:45.237Z,22.84
2022-10-17T21:11:18.355Z,23.76
2022-10-17T21:13:45.815Z,23.69
2022-10-17T21:16:18.093Z,23.03
2022-10-17T21:18:45.156Z,23.61
2022-10-17T21:21:28.925Z,23.27
2022-10-17T21:23:58.511Z,23.21
2022-10-17T21:26:25.206Z,23.69
2022-10-17T21:28:51.877Z,23.75
2022-10-17T21:31:21.685Z,22.74
2022-10-17T21:33:51.231Z,23.01
2022-10-17T21:36:19.036Z,23.69
2022-10-17T21:38:47.752Z,23.68
2022-10-17T21:41:19.669Z,23.50
2022-10-17T21:43:48.943Z,22.81
2022-10-17T21:46:18.485Z,23.83
2022-10-17T21:48:49.091Z,23.74
2022-10-17T21:51:17.468Z,23.78
2022-10-17T21:53:44.749Z,23.63
2022-10-17T21:56:21.423Z,22.35
2022-10-17T21:58:48.683Z,23.23
2022-10-17T22:01:19.156Z,22.99
2022-10-17T22:03:50.047Z,23.64
2022-10-17T22:09:15.749Z,23.23
2022-10-17T22:11:45.696Z,23.44
2022-10-17T22:14:16.303Z,22.23
2022-10-17T22:16:45.046Z,23.56
2022-10-17T22:19:13.324Z,23.31
2022-10-17T22:21:41.560Z,23.17
2022-10-17T22:24:13.914Z,23.57
2022-10-17T22:26:44.255Z,23.63
2022-10-17T22:29:12.006Z,22.57
2022-10-17T22:31:39.851Z,23.44
2022-10-17T22:34:07.301Z,23.11
2022-10-17T22:36:35.957Z,22.92
2022-10-17T22:39:03.208Z,23.72
2022-10-17T22:41:30.717Z,23.57
2022-10-17T22:43:58.919Z,23.52
2022-10-17T22:46:26.443Z,22.26
2022-10-17T22:48:54.388Z,23.56
2022-10-17T22:51:21.633Z,22.52
2022-10-17T22:53:49.032Z,23.34
2022-10-17T22:56:18.966Z,23.35
2022-10-17T22:58:46.722Z,22.14
2022-10-17T23:01:16.830Z,23.25
2022-10-17T23:03:43.688Z,23.43
2022-10-17T23:06:10.640Z,21.63
2022-10-17T23:08:37.471Z,22.85
2022-10-17T23:11:05.193Z,22.20
2022-10-17T23:13:32.374Z,23.41
2022-10-17T23:15:59.867Z,22.99
2022-10-17T23:20:57.729Z,23.42
2022-10-17T23:23:24.621Z,23.62
2022-10-17T23:25:51.802Z,23.62
2022-10-17T23:28:18.407Z,23.51
2022-10-17T23:30:45.531Z,22.47
2022-10-17T23:33:13.612Z,23.64
2022-10-17T23:35:41.021Z,23.29
2022-10-17T23:38:07.833Z,23.28
2022-10-17T23:40:35.576Z,23.08
2022-10-17T23:43:03.451Z,23.26
2022-10-17T23:45:34.727Z,23.06
2022-10-17T23:48:04.148Z,23.41
2022-10-17T23:50:30.709Z,23.33
2022-10-17T23:52:57.392Z,23.34
2022-10-17T23:55:24.368Z,23.45
2022-10-17T23:57:51.665Z,23.44
